Aviation Digital Data Service (ADDS)

Output produced by TAFs form (0254 UTC 21 January 2018)
found at http://www.aviationweather.gov/adds/tafs/
 
KABY 210153Z AUTO 00000KT 10SM CLR 09/04 A3029 RMK AO2 SLP256 T00940044
KABY 202320Z 2100/2124 00000KT P6SM SCT100 SCT200 
     FM211400 08004KT P6SM FEW100